This is the latest recevied weather packets stored in our database for station/object IT9CYW-12. If no packets are shown the sender has not sent any weather packets the latest 10 day(s).
| Time | Temp. | Humidity | Pressure | Rain* | Wind** | Luminosity | Snow |
|---|---|---|---|---|---|---|---|
| 1777636801 | 17.22° C | 60% | 982.2 hPa | - | - | 758 W/m² | - |
| 1777635901 | 17.78° C | 59% | 982.5 hPa | - | - | 799 W/m² | - |
| 1777635000 | 17.22° C | 59% | 982.5 hPa | - | - | 861 W/m² | - |
| 1777634100 | 18.33° C | 56% | 982.7 hPa | - | - | 378 W/m² | - |
| 1777633199 | 17.78° C | 59% | 982.7 hPa | - | - | 665 W/m² | - |
| 1777631403 | 17.22° C | 62% | 982.5 hPa | - | - | 350 W/m² | - |
| 1777630503 | 17.22° C | 65% | 982.5 hPa | - | - | 796 W/m² | - |
| 1777629602 | 17.22° C | 64% | 982.5 hPa | - | - | 400 W/m² | - |
| 1777628702 | 16.67° C | 68% | 982.5 hPa | - | - | 665 W/m² | - |
| 1777627801 | 16.67° C | 71% | 982.4 hPa | - | - | 275 W/m² | - |
| 1777626901 | 16.11° C | 73% | 982.4 hPa | - | - | 228 W/m² | - |
| 1777626001 | 16.67° C | 75% | 982.4 hPa | - | - | 320 W/m² | - |
| 1777625101 | 16.67° C | 77% | 982.2 hPa | - | - | 364 W/m² | - |
| 1777624201 | 16.67° C | 77% | 982 hPa | - | - | 153 W/m² | - |
| 1777623300 | 16.67° C | 78% | 981.7 hPa | - | - | 362 W/m² | - |
| 1777622400 | 16.11° C | 80% | 981.7 hPa | - | - | 115 W/m² | - |
| 1777621500 | 16.11° C | 82% | 981.4 hPa | - | - | 151 W/m² | - |
| 1777620600 | 15.56° C | 82% | 981.4 hPa | - | - | 69 W/m² | - |
| 1777619700 | 15.56° C | 83% | 981.2 hPa | - | - | 63 W/m² | - |
| 1777618799 | 15.56° C | 85% | 981.2 hPa | - | - | 43 W/m² | - |
| 1777617899 | 15.56° C | 86% | 981.2 hPa | - | - | 49 W/m² | - |
| 1777616999 | 15.56° C | 87% | 980.9 hPa | - | - | 29 W/m² | - |
| 1777616099 | 15.56° C | 86% | 980.7 hPa | - | - | 27 W/m² | - |
| 1777615199 | 16.11° C | 86% | 980.7 hPa | - | - | 118 W/m² | - |
| 1777614299 | 15.56° C | 87% | 980.5 hPa | - | - | 112 W/m² | - |
* Rain since midnight (hover to see other rain measurements)
** Current wind speed in m/s (hover to see current wind gust speed)